Dartmouth Reservoir, Victoria

8:43 PM AEST on October 01, 2016 (GMT +1000)
Mount Beauty | | Change Station

Elev 1152 ft 36.74 °S, 147.18 °E | Updated 37 seconds ago

Overcast
Overcast
49.8 °F
Feels Like 50 °F
N
0.0
Wind Variable Wind from SE
Gusts 0.0 mph

Today
High -- | Low -- °F
--% Chance of Precip.
Yesterday
High -- | Low -- °F
Precip. -- in
Pressure 29.83 in
Visibility 6.2 miles
Clouds Overcast 5300 ft
Windchill 50 °F
Dew Point 48 °F
Humidity 92%
Rainfall 0.00 in
Snow Depth Not available.
5:46 AM 6:13 PM
New Moon, 0% visible
METAR YMAY 011000Z AUTO 36004KT 9999 // OVC053 13/09 Q1010
Pressure 29.83 in
Visibility 6.2 miles
Clouds Overcast 5300 ft
Windchill 50 °F
Dew Point 48 °F
Humidity 92%
Rainfall 0.00 in
Snow Depth Not available.
5:46 AM 6:13 PM
New Moon, 0% visible
METAR YMAY 011000Z AUTO 36004KT 9999 // OVC053 13/09 Q1010

10-Day Weather Forecast

No radar image for this location.
×

Almanac

Astronomy

Oct. 01, 2016 Rise Set
Actual Time
Civil Twilight
Nautical Twilight
Astronomical Twilight
Moon
Length of Visible Light
Length of Day
Tomorrow will be .
, % of the Moon is Illuminated

Today's Extremes

Country Highs Country Lows

Community

WunderPhotos

Upload Photos

1,942,908 photos uploaded!

WunderBlog® & News

Nearby

Air Quality

  Air Quality AQ Index Pollutant
Not available.

Snow Depth

Station Depth Elevation

Earthquake Activity

City Distance Mag. Time & Date
Minimum magnitude displayed is 2.5.

Coastal Water Temperatures

Place Temperature

Stations

Nearby Weather Stations

Station Location Temp. Windchill Dew Point Humidity Wind Precip. Elev Updated Type